Time;durP1;ratioP1;P1;durP2;ratioP2;P2;SDS_P1;SDS_P2;PMS_P1;PMS_P2;Temp;Humidity;BMP_temperature;BMP_pressure;BME280_temperature;BME280_humidity;BME280_pressure;Samples;Min_cycle;Max_cycle;Signal;HPM_P1;HPM_P2
2022/04/02 00:01:21;;;;;;;18.35;9.90;;;;;;;;;;6193381;28;20041;-80
2022/04/02 00:04:21;;;;;;;13.93;8.57;;;;;;;;;;6195968;28;20437;-80
2022/04/02 00:07:22;;;;;;;15.85;9.90;;;;;;;;;;6195061;28;20042;-80
2022/04/02 00:10:22;;;;;;;16.63;9.82;;;;;;;;;;6194348;28;20040;-80
2022/04/02 00:13:23;;;;;;;19.65;11.30;;;;;;;;;;6195613;28;20030;-80
2022/04/02 00:16:24;;;;;;;17.98;12.38;;;;;;;;;;6191594;28;20053;-80
2022/04/02 00:19:24;;;;;;;20.67;12.88;;;;;;;;;;6193910;28;20045;-80
2022/04/02 00:22:24;;;;;;;13.98;9.38;;;;;;;;;;6193842;28;20022;-80
2022/04/02 00:25:25;;;;;;;23.77;11.32;;;;;;;;;;6205596;28;20057;-80
2022/04/02 00:28:25;;;;;;;24.90;15.02;;;;;;;;;;6216121;28;20356;-80
2022/04/02 00:31:29;;;;;;;16.65;11.45;;;;;;;;;;6193845;28;20030;-80
2022/04/02 00:34:29;;;;;;;18.35;9.93;;;;;;;;;;6191352;28;20018;-80
2022/04/02 00:37:30;;;;;;;22.42;10.38;;;;;;;;;;6194920;28;20022;-80
2022/04/02 00:40:30;;;;;;;23.42;11.68;;;;;;;;;;6194340;28;20018;-80
2022/04/02 00:43:31;;;;;;;19.00;12.38;;;;;;;;;;6192519;28;20018;-80
2022/04/02 00:46:32;;;;;;;22.23;12.77;;;;;;;;;;6190810;28;20084;-80
2022/04/02 00:49:32;;;;;;;18.65;12.13;;;;;;;;;;6192567;28;20490;-80
2022/04/02 00:52:33;;;;;;;17.05;10.18;;;;;;;;;;6194179;28;20486;-80
2022/04/02 00:55:33;;;;;;;23.30;13.40;;;;;;;;;;6187280;28;20371;-79
2022/04/02 00:58:34;;;;;;;17.65;11.27;;;;;;;;;;6192433;28;20363;-79
2022/04/02 01:01:35;;;;;;;19.55;11.82;;;;;;;;;;6193825;28;20015;-80
2022/04/02 01:04:35;;;;;;;21.40;11.10;;;;;;;;;;6187077;28;20007;-79
2022/04/02 01:07:35;;;;;;;19.65;9.70;;;;;;;;;;6175235;28;20047;-80
2022/04/02 01:10:38;;;;;;;17.15;10.68;;;;;;;;;;6181676;28;20023;-79
2022/04/02 01:13:39;;;;;;;18.77;12.18;;;;;;;;;;6173644;28;20019;-80
2022/04/02 01:16:39;;;;;;;18.35;11.82;;;;;;;;;;6177295;28;20120;-80
2022/04/02 01:19:42;;;;;;;15.88;10.07;;;;;;;;;;6198337;28;20117;-79
2022/04/02 01:22:42;;;;;;;17.85;11.45;;;;;;;;;;6199000;28;20029;-79
2022/04/02 01:25:42;;;;;;;17.67;10.55;;;;;;;;;;6197058;28;20128;-79
2022/04/02 01:28:42;;;;;;;18.77;11.27;;;;;;;;;;6198004;28;20030;-80
2022/04/02 01:31:43;;;;;;;17.48;10.52;;;;;;;;;;6197285;28;20014;-79
2022/04/02 01:34:44;;;;;;;13.10;8.35;;;;;;;;;;6196970;28;20022;-79
2022/04/02 01:37:44;;;;;;;14.68;10.27;;;;;;;;;;6197400;28;20010;-79
2022/04/02 01:40:44;;;;;;;19.08;11.07;;;;;;;;;;6196540;28;20110;-79
2022/04/02 01:43:45;;;;;;;17.63;10.27;;;;;;;;;;6197930;28;20053;-79
2022/04/02 01:46:45;;;;;;;15.45;9.93;;;;;;;;;;6187196;28;20027;-79
2022/04/02 01:49:46;;;;;;;19.38;10.57;;;;;;;;;;6173928;28;20027;-79
2022/04/02 01:52:46;;;;;;;16.80;11.60;;;;;;;;;;6190487;28;20030;-79
2022/04/02 01:55:47;;;;;;;20.70;11.18;;;;;;;;;;6196311;28;20065;-79
2022/04/02 01:58:47;;;;;;;23.08;12.63;;;;;;;;;;6189849;28;20038;-79
2022/04/02 02:01:47;;;;;;;13.30;8.55;;;;;;;;;;6196853;28;20062;-79
2022/04/02 02:04:48;;;;;;;17.58;9.93;;;;;;;;;;6198022;28;20109;-79
2022/04/02 02:07:49;;;;;;;17.42;10.10;;;;;;;;;;6179417;28;20055;-79
2022/04/02 02:10:49;;;;;;;19.45;8.68;;;;;;;;;;6178495;28;20081;-79
2022/04/02 02:13:51;;;;;;;17.60;10.30;;;;;;;;;;6197427;28;20014;-79
2022/04/02 02:16:51;;;;;;;18.20;10.10;;;;;;;;;;6187219;28;20100;-79
2022/04/02 02:19:52;;;;;;;24.58;12.48;;;;;;;;;;6196197;28;20034;-79
2022/04/02 02:22:52;;;;;;;19.80;9.80;;;;;;;;;;6196505;28;20026;-79
2022/04/02 02:25:52;;;;;;;20.65;10.68;;;;;;;;;;6196488;28;20072;-79
2022/04/02 02:28:52;;;;;;;21.15;11.10;;;;;;;;;;6195420;28;20355;-79
2022/04/02 02:31:53;;;;;;;16.02;8.85;;;;;;;;;;6181343;28;20368;-79
2022/04/02 02:38:14;;;;;;;18.60;10.45;;;;;;;;;;6172753;28;20034;-79
2022/04/02 02:41:14;;;;;;;17.05;9.80;;;;;;;;;;6170684;28;20046;-79
2022/04/02 02:44:15;;;;;;;20.25;11.05;;;;;;;;;;6187588;28;20026;-79
2022/04/02 02:47:15;;;;;;;17.70;10.98;;;;;;;;;;6184814;28;20034;-79
2022/04/02 02:50:15;;;;;;;10.97;7.07;;;;;;;;;;6220593;28;20025;-79
2022/04/02 02:53:15;;;;;;;16.95;10.23;;;;;;;;;;6219178;28;20276;-79
2022/04/02 02:56:16;;;;;;;19.20;10.40;;;;;;;;;;6180385;28;20451;-79
2022/04/02 02:59:16;;;;;;;15.18;9.38;;;;;;;;;;6190558;28;20029;-79
2022/04/02 03:02:16;;;;;;;14.88;8.48;;;;;;;;;;6196069;28;20101;-79
2022/04/02 03:05:18;;;;;;;15.95;9.68;;;;;;;;;;6195607;28;20026;-79
2022/04/02 03:08:19;;;;;;;17.55;9.85;;;;;;;;;;6196081;28;20619;-79
2022/04/02 03:11:19;;;;;;;12.83;6.90;;;;;;;;;;6194279;28;20477;-79
2022/04/02 03:14:20;;;;;;;12.52;9.05;;;;;;;;;;6196302;28;20265;-79
2022/04/02 03:17:20;;;;;;;17.80;9.90;;;;;;;;;;6183766;28;20030;-79
2022/04/02 03:20:21;;;;;;;15.50;9.60;;;;;;;;;;6195096;28;20347;-79
2022/04/02 03:23:21;;;;;;;11.35;7.25;;;;;;;;;;6195050;28;20327;-79
2022/04/02 03:26:21;;;;;;;16.33;9.32;;;;;;;;;;6200013;28;20386;-79
2022/04/02 03:29:21;;;;;;;15.18;9.30;;;;;;;;;;6194757;28;20030;-78
2022/04/02 03:32:22;;;;;;;14.20;9.05;;;;;;;;;;6196360;28;20456;-79
2022/04/02 03:35:22;;;;;;;16.40;9.13;;;;;;;;;;6195245;28;20101;-79
2022/04/02 03:38:22;;;;;;;15.45;9.52;;;;;;;;;;6193298;28;20494;-79
2022/04/02 03:41:24;;;;;;;15.98;9.55;;;;;;;;;;6192989;28;20018;-79
2022/04/02 03:44:24;;;;;;;11.82;8.05;;;;;;;;;;6194541;28;20019;-79
2022/04/02 03:47:24;;;;;;;16.17;7.38;;;;;;;;;;6193249;28;20073;-79
2022/04/02 03:50:25;;;;;;;8.68;5.72;;;;;;;;;;6170679;28;20023;-79
2022/04/02 03:53:25;;;;;;;17.38;10.77;;;;;;;;;;6193097;28;20053;-79
2022/04/02 03:56:26;;;;;;;13.73;6.83;;;;;;;;;;6215033;28;20113;-78
2022/04/02 03:59:26;;;;;;;16.98;10.38;;;;;;;;;;6196128;28;20715;-79
2022/04/02 04:02:26;;;;;;;17.83;8.77;;;;;;;;;;6187800;28;20033;-79
2022/04/02 04:05:28;;;;;;;13.85;8.15;;;;;;;;;;6217324;28;20057;-79
2022/04/02 04:08:28;;;;;;;9.95;6.65;;;;;;;;;;6217363;28;20104;-79
2022/04/02 04:11:29;;;;;;;12.05;8.02;;;;;;;;;;6208202;28;20030;-78
2022/04/02 04:14:29;;;;;;;15.35;8.85;;;;;;;;;;6194693;28;20034;-78
2022/04/02 04:17:30;;;;;;;17.25;9.65;;;;;;;;;;6191940;28;20053;-78
2022/04/02 04:20:32;;;;;;;15.32;8.27;;;;;;;;;;6191896;28;20374;-78
2022/04/02 04:23:34;;;;;;;12.07;7.50;;;;;;;;;;6194572;28;20018;-78
2022/04/02 04:26:34;;;;;;;12.82;7.28;;;;;;;;;;6193328;28;20034;-78
2022/04/02 04:29:35;;;;;;;14.38;8.82;;;;;;;;;;6193493;28;20034;-78
2022/04/02 04:32:36;;;;;;;15.32;8.40;;;;;;;;;;6184103;28;20023;-78
2022/04/02 04:35:36;;;;;;;14.40;8.60;;;;;;;;;;6169237;28;20573;-77
2022/04/02 04:38:36;;;;;;;19.30;9.03;;;;;;;;;;6168929;28;20037;-78
2022/04/02 04:41:38;;;;;;;15.10;8.25;;;;;;;;;;6182883;28;20273;-78
2022/04/02 04:44:38;;;;;;;15.45;8.13;;;;;;;;;;6199410;28;20030;-78
2022/04/02 04:47:43;;;;;;;17.90;7.57;;;;;;;;;;6181179;28;20034;-78
2022/04/02 04:50:43;;;;;;;17.95;8.90;;;;;;;;;;6173519;28;20026;-78
2022/04/02 04:53:44;;;;;;;19.02;8.73;;;;;;;;;;6183798;28;20073;-77
2022/04/02 04:56:44;;;;;;;13.90;7.63;;;;;;;;;;6199004;28;20023;-77
2022/04/02 04:59:44;;;;;;;13.57;8.85;;;;;;;;;;6198075;28;20030;-77
2022/04/02 05:02:47;;;;;;;14.82;7.88;;;;;;;;;;6183222;28;20113;-78
2022/04/02 05:05:48;;;;;;;15.52;8.20;;;;;;;;;;6197581;28;20547;-77
2022/04/02 05:08:48;;;;;;;14.60;8.82;;;;;;;;;;6198096;28;20054;-77
2022/04/02 05:11:48;;;;;;;18.55;10.40;;;;;;;;;;6189076;28;20196;-78
2022/04/02 05:14:49;;;;;;;14.75;8.25;;;;;;;;;;6196890;28;20022;-77
2022/04/02 05:17:49;;;;;;;18.75;11.90;;;;;;;;;;6191382;28;20125;-77
2022/04/02 05:20:49;;;;;;;16.15;9.02;;;;;;;;;;6191351;28;20060;-77
2022/04/02 05:23:50;;;;;;;13.07;7.85;;;;;;;;;;6194667;28;20037;-77
2022/04/02 05:26:50;;;;;;;15.48;10.15;;;;;;;;;;6196089;28;20026;-77
2022/04/02 05:29:51;;;;;;;18.08;9.65;;;;;;;;;;6192780;28;20026;-78
2022/04/02 05:32:51;;;;;;;13.23;7.57;;;;;;;;;;6197000;28;20045;-77
2022/04/02 05:35:52;;;;;;;24.27;12.25;;;;;;;;;;6197193;28;20014;-77
2022/04/02 05:38:52;;;;;;;21.88;11.73;;;;;;;;;;6195345;28;20019;-77
2022/04/02 05:41:53;;;;;;;29.05;14.15;;;;;;;;;;6196936;28;20081;-77
2022/04/02 05:44:57;;;;;;;18.55;9.13;;;;;;;;;;6196571;28;20025;-77
2022/04/02 05:47:57;;;;;;;24.90;13.07;;;;;;;;;;6177943;28;20023;-77
2022/04/02 05:50:58;;;;;;;17.05;10.50;;;;;;;;;;6189899;28;20077;-77
2022/04/02 05:53:59;;;;;;;15.18;7.63;;;;;;;;;;6189463;28;20054;-77
2022/04/02 05:57:00;;;;;;;17.15;9.30;;;;;;;;;;6197711;28;20034;-77
2022/04/02 06:00:01;;;;;;;11.32;6.65;;;;;;;;;;6197245;28;20402;-77
2022/04/02 06:03:02;;;;;;;11.20;6.10;;;;;;;;;;6189821;28;20030;-77
2022/04/02 06:06:02;;;;;;;16.83;9.75;;;;;;;;;;6206956;28;20077;-77
2022/04/02 06:09:03;;;;;;;15.82;9.57;;;;;;;;;;6193743;28;20050;-77
2022/04/02 06:12:04;;;;;;;18.80;9.98;;;;;;;;;;6182869;28;20409;-76
2022/04/02 06:15:05;;;;;;;13.77;7.90;;;;;;;;;;6193024;28;20120;-77
2022/04/02 06:18:07;;;;;;;18.88;11.55;;;;;;;;;;6192799;28;20137;-77
2022/04/02 06:21:07;;;;;;;21.30;11.95;;;;;;;;;;6193925;28;20018;-77
2022/04/02 06:24:07;;;;;;;17.30;9.73;;;;;;;;;;6196286;28;20077;-77
2022/04/02 06:27:07;;;;;;;17.67;10.63;;;;;;;;;;6194618;28;20400;-76
2022/04/02 06:30:09;;;;;;;17.75;10.55;;;;;;;;;;6193881;28;20030;-76
2022/04/02 06:33:09;;;;;;;15.55;8.13;;;;;;;;;;6194835;28;20492;-77
2022/04/02 06:36:10;;;;;;;10.90;7.63;;;;;;;;;;6192631;28;20378;-78
2022/04/02 06:39:12;;;;;;;16.60;8.27;;;;;;;;;;6194645;28;20030;-78
2022/04/02 06:42:12;;;;;;;11.98;8.90;;;;;;;;;;6196400;28;20038;-78
2022/04/02 06:45:13;;;;;;;16.83;10.48;;;;;;;;;;6178070;28;20514;-78
2022/04/02 06:48:16;;;;;;;13.82;9.15;;;;;;;;;;6192422;28;20046;-78
2022/04/02 06:51:17;;;;;;;19.10;11.05;;;;;;;;;;6194235;28;20073;-78
2022/04/02 06:54:17;;;;;;;22.00;10.68;;;;;;;;;;6195212;28;20018;-78
2022/04/02 06:57:20;;;;;;;15.52;9.27;;;;;;;;;;6192023;28;20398;-78
2022/04/02 07:00:21;;;;;;;16.00;10.48;;;;;;;;;;6194215;28;20120;-78
2022/04/02 07:03:22;;;;;;;15.93;9.85;;;;;;;;;;6171042;28;20707;-78
2022/04/02 07:06:22;;;;;;;14.50;8.10;;;;;;;;;;6176296;28;20477;-78
2022/04/02 07:09:23;;;;;;;17.17;10.88;;;;;;;;;;6194994;28;20285;-78
2022/04/02 07:12:23;;;;;;;19.95;11.05;;;;;;;;;;6192589;28;20026;-78
2022/04/02 07:15:23;;;;;;;19.23;8.55;;;;;;;;;;6191977;28;20042;-78
2022/04/02 07:18:24;;;;;;;18.33;9.68;;;;;;;;;;6182863;28;20029;-79
2022/04/02 07:21:26;;;;;;;13.52;8.25;;;;;;;;;;6194723;28;20062;-79
2022/04/02 07:24:26;;;;;;;16.98;9.90;;;;;;;;;;6194200;28;20018;-78
2022/04/02 07:27:27;;;;;;;12.77;7.43;;;;;;;;;;6191470;28;20323;-79
2022/04/02 07:30:28;;;;;;;12.32;7.20;;;;;;;;;;6189929;28;20026;-79
2022/04/02 07:33:28;;;;;;;17.33;8.82;;;;;;;;;;6190024;28;20417;-78
2022/04/02 07:36:37;;;;;;;19.27;11.15;;;;;;;;;;6183382;28;20062;-79
2022/04/02 07:39:49;;;;;;;19.33;11.40;;;;;;;;;;6187820;28;20105;-78
2022/04/02 07:42:59;;;;;;;21.00;11.15;;;;;;;;;;6185013;28;20479;-79
2022/04/02 07:46:06;;;;;;;19.38;10.05;;;;;;;;;;6188690;28;20050;-79
2022/04/02 07:49:10;;;;;;;18.15;9.60;;;;;;;;;;6191770;28;20114;-79
2022/04/02 07:52:11;;;;;;;19.08;11.90;;;;;;;;;;6191254;28;20022;-79
2022/04/02 07:55:12;;;;;;;21.15;11.77;;;;;;;;;;6186896;28;20234;-79
2022/04/02 07:58:14;;;;;;;17.70;9.70;;;;;;;;;;6186321;28;20034;-79
2022/04/02 08:01:16;;;;;;;17.77;10.93;;;;;;;;;;6189518;28;20030;-78
2022/04/02 08:04:17;;;;;;;;;;;;;;;;;;6189306;28;20018;-79
2022/04/02 08:07:17;;;;;;;21.40;12.80;;;;;;;;;;6190594;28;19918;-79
2022/04/02 08:10:19;;;;;;;18.02;10.38;;;;;;;;;;6192212;28;20457;-78
2022/04/02 08:13:20;;;;;;;17.75;9.93;;;;;;;;;;6194964;28;20035;-79
2022/04/02 08:16:21;;;;;;;16.08;9.70;;;;;;;;;;6192669;28;20461;-79
2022/04/02 08:19:22;;;;;;;22.45;11.98;;;;;;;;;;6190809;28;20026;-79
2022/04/02 08:22:23;;;;;;;16.25;9.30;;;;;;;;;;6193792;28;20015;-78
2022/04/02 08:25:23;;;;;;;18.90;10.43;;;;;;;;;;6195287;28;20509;-78
2022/04/02 08:28:26;;;;;;;16.35;10.52;;;;;;;;;;6192238;28;20261;-78
2022/04/02 08:31:30;;;;;;;25.98;13.02;;;;;;;;;;6191602;28;20061;-79
2022/04/02 08:34:44;;;;;;;13.70;10.98;;;;;;;;;;6188062;28;20026;-79
2022/04/02 08:37:59;;;;;;;19.25;12.45;;;;;;;;;;6176440;28;20081;-79
2022/04/02 08:41:11;;;;;;;28.48;14.48;;;;;;;;;;6190858;28;20023;-79
2022/04/02 08:44:13;;;;;;;;;;;;;;;;;;6189200;28;20442;-79
2022/04/02 08:47:29;;;;;;;22.15;12.23;;;;;;;;;;6204413;28;19939;-79
2022/04/02 08:50:30;;;;;;;24.75;15.32;;;;;;;;;;6180888;28;20109;-80
2022/04/02 08:53:48;;;;;;;18.83;9.50;;;;;;;;;;6186789;28;20089;-80
2022/04/02 08:56:53;;;;;;;22.58;11.68;;;;;;;;;;6200872;28;20073;-79
2022/04/02 09:00:02;;;;;;;21.00;11.65;;;;;;;;;;6196722;28;20026;-79
2022/04/02 09:03:21;;;;;;;20.45;11.95;;;;;;;;;;6190269;28;20271;-79
2022/04/02 09:06:21;;;;;;;21.17;9.88;;;;;;;;;;6194151;28;20018;-79
2022/04/02 09:09:36;;;;;;;21.37;11.40;;;;;;;;;;6191474;28;20046;-79
2022/04/02 09:12:46;;;;;;;19.25;12.05;;;;;;;;;;6191142;28;20269;-79
2022/04/02 09:15:50;;;;;;;19.02;12.40;;;;;;;;;;6186363;28;20026;-80
2022/04/02 09:19:10;;;;;;;19.52;11.75;;;;;;;;;;6183494;28;20062;-80
2022/04/02 09:22:27;;;;;;;17.52;11.55;;;;;;;;;;6180494;28;20315;-80
2022/04/02 09:25:33;;;;;;;22.48;13.43;;;;;;;;;;6184609;28;20025;-80
2022/04/02 09:28:46;;;;;;;18.98;10.68;;;;;;;;;;6197846;28;20037;-80
2022/04/02 09:32:06;;;;;;;17.85;11.32;;;;;;;;;;6190775;28;20022;-80
2022/04/02 09:35:07;;;;;;;18.10;9.88;;;;;;;;;;6194533;28;20401;-80
2022/04/02 09:38:30;;;;;;;22.08;12.48;;;;;;;;;;6207158;28;20387;-80
2022/04/02 09:41:33;;;;;;;18.10;12.18;;;;;;;;;;6182807;28;20030;-79
2022/04/02 09:44:39;;;;;;;18.45;12.13;;;;;;;;;;6194283;28;20033;-79
2022/04/02 09:47:43;;;;;;;15.68;9.77;;;;;;;;;;6197399;28;20022;-79
2022/04/02 09:50:44;;;;;;;20.98;12.25;;;;;;;;;;6195196;28;20397;-79
2022/04/02 09:53:51;;;;;;;24.33;12.73;;;;;;;;;;6194740;28;20097;-79
2022/04/02 09:57:00;;;;;;;21.42;13.02;;;;;;;;;;6190839;28;20030;-79
2022/04/02 10:00:03;;;;;;;18.80;12.70;;;;;;;;;;6193016;28;20011;-79
2022/04/02 10:03:08;;;;;;;25.42;11.95;;;;;;;;;;6193185;28;20079;-79
2022/04/02 10:06:20;;;;;;;21.33;12.60;;;;;;;;;;6196846;28;20064;-79
2022/04/02 10:09:22;;;;;;;19.75;10.82;;;;;;;;;;6196707;28;20129;-80
2022/04/02 10:12:27;;;;;;;24.25;13.93;;;;;;;;;;6197819;28;20018;-80
2022/04/02 10:15:28;;;;;;;25.73;14.43;;;;;;;;;;6195382;28;20023;-79
2022/04/02 10:18:29;;;;;;;23.88;13.48;;;;;;;;;;6195094;28;20132;-80
2022/04/02 10:21:32;;;;;;;22.73;13.13;;;;;;;;;;6197505;28;20049;-80
2022/04/02 10:24:34;;;;;;;19.33;11.02;;;;;;;;;;6200135;28;20037;-80
2022/04/02 10:27:34;;;;;;;;;;;;;;;;;;6202387;28;20030;-79
2022/04/02 10:30:35;;;;;;;24.20;12.80;;;;;;;;;;6200943;28;19957;-80
2022/04/02 10:33:36;;;;;;;21.35;11.65;;;;;;;;;;6198414;28;20026;-80
2022/04/02 10:36:43;;;;;;;34.10;15.90;;;;;;;;;;6197054;28;20049;-79
2022/04/02 10:39:56;;;;;;;24.80;14.32;;;;;;;;;;6196853;28;20014;-79
2022/04/02 10:43:06;;;;;;;36.63;15.90;;;;;;;;;;6191512;28;20015;-79
2022/04/02 10:46:06;;;;;;;27.30;13.48;;;;;;;;;;6196577;28;20418;-79
2022/04/02 10:49:10;;;;;;;20.15;13.02;;;;;;;;;;6200022;28;20065;-79
2022/04/02 10:52:11;;;;;;;19.77;12.13;;;;;;;;;;6199209;28;20021;-79
2022/04/02 10:55:15;;;;;;;20.73;12.23;;;;;;;;;;6200833;28;20057;-80
2022/04/02 10:58:20;;;;;;;26.02;16.00;;;;;;;;;;6191019;28;20018;-80
2022/04/02 11:01:22;;;;;;;27.45;15.30;;;;;;;;;;6176071;28;20101;-80
2022/04/02 11:04:31;;;;;;;18.48;9.05;;;;;;;;;;6202149;28;20018;-79
2022/04/02 11:07:35;;;;;;;19.40;11.50;;;;;;;;;;6199757;28;20043;-80
2022/04/02 11:10:35;;;;;;;25.42;16.00;;;;;;;;;;6202800;28;20040;-79
2022/04/02 11:13:38;;;;;;;26.90;14.93;;;;;;;;;;6200829;28;20390;-79
2022/04/02 11:16:38;;;;;;;;;;;;;;;;;;6196194;28;20088;-79
2022/04/02 11:19:56;;;;;;;24.13;13.18;;;;;;;;;;6195873;28;19949;-79
2022/04/02 11:23:02;;;;;;;22.63;13.50;;;;;;;;;;6195133;28;20470;-79
2022/04/02 11:26:03;;;;;;;26.58;16.08;;;;;;;;;;6194727;28;20014;-79
2022/04/02 11:29:04;;;;;;;24.90;13.93;;;;;;;;;;6193798;28;20029;-79
2022/04/02 11:32:06;;;;;;;28.30;15.55;;;;;;;;;;6195135;28;20030;-79
2022/04/02 11:35:07;;;;;;;25.20;14.30;;;;;;;;;;6193703;28;20605;-79
2022/04/02 11:38:27;;;;;;;29.20;16.10;;;;;;;;;;6195468;28;20054;-79
2022/04/02 11:41:33;;;;;;;30.98;15.20;;;;;;;;;;6193064;28;20041;-78
2022/04/02 11:44:37;;;;;;;28.95;15.70;;;;;;;;;;6195297;28;20026;-78
2022/04/02 11:47:45;;;;;;;26.50;13.88;;;;;;;;;;6176871;28;20019;-79
2022/04/02 11:50:46;;;;;;;26.63;16.23;;;;;;;;;;6169600;28;20031;-79
2022/04/02 11:53:46;;;;;;;30.17;14.98;;;;;;;;;;6170410;28;20090;-78
2022/04/02 11:56:47;;;;;;;30.38;19.25;;;;;;;;;;6193719;28;20054;-79
2022/04/02 11:59:50;;;;;;;24.83;14.50;;;;;;;;;;6194129;28;20030;-78
2022/04/02 12:02:51;;;;;;;29.25;16.55;;;;;;;;;;6193391;28;20026;-78
2022/04/02 12:05:51;;;;;;;31.42;16.63;;;;;;;;;;6193943;28;20474;-79
2022/04/02 12:08:54;;;;;;;29.23;16.73;;;;;;;;;;6193337;28;20121;-78
2022/04/02 12:11:55;;;;;;;33.53;18.50;;;;;;;;;;6193339;28;20018;-78
2022/04/02 12:15:07;;;;;;;24.92;15.75;;;;;;;;;;6192759;28;20014;-78
2022/04/02 12:18:08;;;;;;;24.30;15.75;;;;;;;;;;6191710;28;20029;-78
2022/04/02 12:21:08;;;;;;;24.17;13.32;;;;;;;;;;6193373;28;20510;-78
2022/04/02 12:24:09;;;;;;;24.35;14.25;;;;;;;;;;6193952;28;20026;-79
2022/04/02 12:27:09;;;;;;;30.27;15.90;;;;;;;;;;6193398;28;20470;-78
2022/04/02 12:30:10;;;;;;;25.17;15.60;;;;;;;;;;6192101;28;20153;-78
2022/04/02 12:33:15;;;;;;;21.13;9.65;;;;;;;;;;6191328;28;20026;-78
2022/04/02 12:36:16;;;;;;;30.15;14.43;;;;;;;;;;6191627;28;20097;-78
2022/04/02 12:39:19;;;;;;;27.13;15.88;;;;;;;;;;6178840;28;20037;-78
2022/04/02 12:42:39;;;;;;;31.35;17.75;;;;;;;;;;6193600;28;20050;-78
2022/04/02 12:45:39;;;;;;;30.95;18.77;;;;;;;;;;6204550;28;20101;-78
2022/04/02 12:48:41;;;;;;;34.20;21.75;;;;;;;;;;6193640;28;20377;-78
2022/04/02 12:51:41;;;;;;;24.63;15.50;;;;;;;;;;6194806;28;20080;-78
2022/04/02 12:54:47;;;;;;;33.97;17.10;;;;;;;;;;6192884;28;20050;-78
2022/04/02 12:58:07;;;;;;;30.95;15.82;;;;;;;;;;6178238;28;20444;-78
2022/04/02 13:01:12;;;;;;;22.27;12.05;;;;;;;;;;6210061;28;20026;-79
2022/04/02 13:33:26;;;;;;;39.08;19.67;;;;;;;;;;6399115;27;20392;-79
2022/04/02 13:36:28;;;;;;;23.65;13.30;;;;;;;;;;6386793;27;20030;-79
2022/04/02 13:39:33;;;;;;;24.92;13.55;;;;;;;;;;6378901;27;20011;-79
2022/04/02 13:42:36;;;;;;;25.65;13.52;;;;;;;;;;6394990;27;20029;-79
2022/04/02 13:45:42;;;;;;;32.03;19.08;;;;;;;;;;6394336;27;20027;-79
2022/04/02 13:49:08;;;;;;;37.15;19.05;;;;;;;;;;6405821;27;20014;-79
2022/04/02 13:52:11;;;;;;;29.42;16.95;;;;;;;;;;6384834;27;20023;-79
2022/04/02 13:55:15;;;;;;;30.48;16.08;;;;;;;;;;6381582;27;20018;-79
2022/04/02 13:58:21;;;;;;;27.92;18.00;;;;;;;;;;6390552;27;20095;-79
2022/04/02 14:01:21;;;;;;;35.63;20.02;;;;;;;;;;6370881;27;20021;-79
2022/04/02 14:04:32;;;;;;;26.05;14.80;;;;;;;;;;6389136;27;20011;-79
2022/04/02 14:07:36;;;;;;;36.17;18.93;;;;;;;;;;6366925;27;20019;-79
2022/04/02 14:10:40;;;;;;;27.65;17.13;;;;;;;;;;6365978;27;20364;-79
2022/04/02 14:13:46;;;;;;;27.85;15.07;;;;;;;;;;6361608;27;20168;-79
2022/04/02 14:17:06;;;;;;;30.38;18.30;;;;;;;;;;6365265;27;20103;-80
2022/04/02 14:20:16;;;;;;;36.63;19.88;;;;;;;;;;6366496;27;20020;-80
2022/04/02 14:23:22;;;;;;;31.25;19.38;;;;;;;;;;6344821;28;20015;-79
2022/04/02 14:26:37;;;;;;;33.63;18.35;;;;;;;;;;6372614;27;20016;-79
2022/04/02 14:29:44;;;;;;;31.75;20.05;;;;;;;;;;6362864;27;20023;-79
2022/04/02 14:32:53;;;;;;;25.35;15.32;;;;;;;;;;6362854;28;20043;-79
2022/04/02 14:36:12;;;;;;;34.80;18.27;;;;;;;;;;6363304;28;20385;-79
2022/04/02 14:39:27;;;;;;;23.95;14.98;;;;;;;;;;6361357;28;20022;-79
2022/04/02 14:43:03;;;;;;;31.95;17.80;;;;;;;;;;6356196;27;20140;-79
2022/04/02 14:46:13;;;;;;;20.98;12.80;;;;;;;;;;6348891;27;20492;-79
2022/04/02 14:49:31;;;;;;;30.95;18.50;;;;;;;;;;6338107;28;20077;-79
2022/04/02 14:52:48;;;;;;;29.63;16.83;;;;;;;;;;6328608;28;20019;-79
2022/04/02 14:56:07;;;;;;;27.13;18.40;;;;;;;;;;6355226;27;20372;-80
2022/04/02 14:59:25;;;;;;;29.27;17.15;;;;;;;;;;6331901;28;20020;-80
2022/04/02 15:02:38;;;;;;;22.20;14.15;;;;;;;;;;6345804;28;20036;-79
2022/04/02 15:05:38;;;;;;;;;;;;;;;;;;6346091;27;20041;-79
2022/04/02 15:08:38;;;;;;;28.13;14.93;;;;;;;;;;6342030;28;19909;-79
2022/04/02 15:11:48;;;;;;;32.27;18.83;;;;;;;;;;6342495;27;20382;-78
2022/04/02 15:14:58;;;;;;;28.58;17.42;;;;;;;;;;6349944;27;20319;-79
2022/04/02 15:18:00;;;;;;;32.22;18.42;;;;;;;;;;6345715;27;20023;-79
2022/04/02 15:21:03;;;;;;;38.70;19.30;;;;;;;;;;6345016;28;20023;-79
2022/04/02 15:24:03;;;;;;;36.58;21.75;;;;;;;;;;6326772;27;20042;-78
2022/04/02 15:27:04;;;;;;;47.27;24.23;;;;;;;;;;6351869;27;20011;-79
2022/04/02 15:30:05;;;;;;;38.70;19.63;;;;;;;;;;6352090;27;20276;-79
2022/04/02 15:33:07;;;;;;;37.20;19.70;;;;;;;;;;6338153;27;20424;-79
2022/04/02 15:36:07;;;;;;;43.75;25.27;;;;;;;;;;6363472;27;20094;-79
2022/04/02 15:39:07;;;;;;;38.95;21.83;;;;;;;;;;6368992;27;20019;-79
2022/04/02 15:42:18;;;;;;;45.83;26.60;;;;;;;;;;6370434;27;20019;-79
2022/04/02 15:45:37;;;;;;;41.10;21.30;;;;;;;;;;6357847;27;20024;-79
2022/04/02 15:48:55;;;;;;;41.75;22.60;;;;;;;;;;6346681;27;20012;-79
2022/04/02 15:51:56;;;;;;;41.10;22.48;;;;;;;;;;6351896;27;20027;-79
2022/04/02 15:54:58;;;;;;;38.90;20.43;;;;;;;;;;6339390;27;20015;-79
2022/04/02 15:58:10;;;;;;;37.65;22.55;;;;;;;;;;6345886;27;20257;-79
2022/04/02 16:01:10;;;;;;;38.35;21.98;;;;;;;;;;6343491;28;20443;-79
2022/04/02 16:04:18;;;;;;;35.72;21.73;;;;;;;;;;6341583;28;20022;-79
2022/04/02 16:07:26;;;;;;;39.05;23.30;;;;;;;;;;6351154;27;20557;-79
2022/04/02 16:10:27;;;;;;;45.60;25.98;;;;;;;;;;6339810;27;20632;-79
2022/04/02 16:13:28;;;;;;;40.43;22.73;;;;;;;;;;6343379;27;20534;-79
2022/04/02 16:16:29;;;;;;;36.35;21.38;;;;;;;;;;6350704;27;20019;-79
2022/04/02 16:19:40;;;;;;;54.25;27.63;;;;;;;;;;6344922;27;20026;-78
2022/04/02 16:22:44;;;;;;;45.53;26.33;;;;;;;;;;6338980;27;20099;-79
2022/04/02 16:25:48;;;;;;;60.63;25.77;;;;;;;;;;6364983;27;20022;-78
2022/04/02 16:28:48;;;;;;;56.92;25.63;;;;;;;;;;6364289;27;20094;-78
2022/04/02 16:31:50;;;;;;;55.90;28.05;;;;;;;;;;6333627;28;20402;-78
2022/04/02 16:34:52;;;;;;;47.13;25.05;;;;;;;;;;6340396;28;20451;-78
2022/04/02 16:38:04;;;;;;;66.65;32.63;;;;;;;;;;6332654;27;20011;-78
2022/04/02 16:41:07;;;;;;;64.93;32.65;;;;;;;;;;6335925;28;20030;-78
2022/04/02 16:44:25;;;;;;;83.45;35.55;;;;;;;;;;6332189;28;20034;-78
2022/04/02 16:47:26;;;;;;;69.18;33.05;;;;;;;;;;6332914;28;20027;-78
2022/04/02 16:50:26;;;;;;;50.47;23.27;;;;;;;;;;6333142;28;20020;-78
2022/04/02 16:53:26;;;;;;;53.55;28.05;;;;;;;;;;6330330;28;20077;-78
2022/04/02 16:56:31;;;;;;;61.30;33.05;;;;;;;;;;6323241;28;20024;-77
2022/04/02 16:59:35;;;;;;;73.97;38.40;;;;;;;;;;6323056;28;20102;-78
2022/04/02 17:02:37;;;;;;;71.40;37.03;;;;;;;;;;6320547;28;20110;-78
2022/04/02 17:05:40;;;;;;;80.53;38.78;;;;;;;;;;6324720;28;20040;-78
2022/04/02 17:08:40;;;;;;;69.40;33.58;;;;;;;;;;6318553;28;20040;-78
2022/04/02 17:11:41;;;;;;;73.35;35.22;;;;;;;;;;6325711;28;20371;-77
2022/04/02 17:14:41;;;;;;;117.90;55.83;;;;;;;;;;6320625;28;20461;-78
2022/04/02 17:17:41;;;;;;;80.78;39.00;;;;;;;;;;6318394;28;20031;-77
2022/04/02 17:20:43;;;;;;;77.00;41.33;;;;;;;;;;6318563;28;20022;-77
2022/04/02 17:23:43;;;;;;;104.05;57.85;;;;;;;;;;6317332;28;20265;-77
2022/04/02 17:26:43;;;;;;;112.03;63.35;;;;;;;;;;6322188;28;20043;-77
2022/04/02 17:29:45;;;;;;;81.72;44.92;;;;;;;;;;6317879;28;20042;-77
2022/04/02 17:32:46;;;;;;;77.55;43.15;;;;;;;;;;6339824;28;20039;-77
2022/04/02 17:35:51;;;;;;;71.20;41.05;;;;;;;;;;6343084;28;20087;-77
2022/04/02 17:38:59;;;;;;;70.32;43.50;;;;;;;;;;6346716;28;20026;-76
2022/04/02 17:42:09;;;;;;;76.85;44.03;;;;;;;;;;6368899;28;20019;-76
2022/04/02 17:45:15;;;;;;;81.63;45.97;;;;;;;;;;6359571;28;20016;-76
2022/04/02 17:48:18;;;;;;;62.70;36.67;;;;;;;;;;6349645;28;20099;-76
2022/04/02 17:51:28;;;;;;;69.43;37.72;;;;;;;;;;6349379;28;20027;-76
2022/04/02 17:54:44;;;;;;;66.00;35.80;;;;;;;;;;6348738;28;20068;-76
2022/04/02 17:58:17;;;;;;;73.80;41.88;;;;;;;;;;6360169;28;20015;-76
2022/04/02 18:01:26;;;;;;;74.20;42.22;;;;;;;;;;6312309;28;20071;-76
2022/04/02 18:04:26;;;;;;;88.75;52.67;;;;;;;;;;6348189;28;20023;-76
2022/04/02 18:07:27;;;;;;;73.57;39.70;;;;;;;;;;6350759;27;20038;-76
2022/04/02 18:10:28;;;;;;;73.90;38.58;;;;;;;;;;6334031;28;20296;-76
2022/04/02 18:13:35;;;;;;;74.78;38.33;;;;;;;;;;6352498;28;20016;-76
2022/04/02 18:16:35;;;;;;;66.72;36.38;;;;;;;;;;6342396;27;20015;-76
2022/04/02 18:19:36;;;;;;;75.13;41.92;;;;;;;;;;6349635;27;20461;-76
2022/04/02 18:22:36;;;;;;;65.05;35.85;;;;;;;;;;6359147;27;20375;-76
2022/04/02 18:25:39;;;;;;;54.63;33.00;;;;;;;;;;6351833;27;20477;-76
2022/04/02 18:28:40;;;;;;;65.93;36.58;;;;;;;;;;6360556;27;20379;-76